Terminal Aerodrome Forecast
Issued by NWS Sioux Falls, SD

Home | Current Version | Previous Version | Text Only | Print | Product List | Glossary On
Versions: 1 2 3 4 5 6 7 8 9 10 11 12 13 14 15 16 17 18 19 20 21 22 23 24 25
988
FTUS43 KFSD 091730
TAFFSD
TAF
KFSD 091730Z 0918/1018 34012KT P6SM BKN050
     FM100000 35006KT P6SM SCT050 OVC100
     FM100600 VRB03KT P6SM SCT035 OVC060
     FM101200 12007KT 4SM -SN OVC030
     FM101400 11006KT 2SM -SN BR OVC015=

USA.gov is the U.S. government's official web portal to all federal, state and local government web resources and services.